KGUS

Grissom ARB Airport

Peru, Indiana, USA
METAR KGUS 231429Z VRB04KT 10SM CLR 19/17 A3019 RMK AO2A SLP224 $
Observed Flight Rules
May-23 @ 14:29 UTC (33 minutes ago) Visual Flight Rules
Wind Visibility Clouds
Variable at 4 knots 10 miles
  • Clear skies
Temperatures Readings
Current 19°C / 66°F
Dewpoint 17°C / 63°F
Humidity 88%
Altimeter 30.19" Hg
Pressure 1022.4 hPa
Elevation 247
METAR KGUS 231429Z VRB04KT 10SM CLR 19/17 A3019 RMK AO2A SLP224 $
Observed Flight Rules
May-23 @ 14:29 UTC
(33 minutes ago)
VFR
Wind Visibility
Variable at 4 knots 10 miles
Clouds
  • Clear skies
Temperature Dewpoint
19°C / 66°F 17°C / 63°F
Humidity Altimeter Pressure
88% 30.19" Hg 1022.4 hPa